»·PEaware :: DAL2967 KSLC-KBIL

DAL2967 :: KSLC-KBIL

FLIGHT INFORMATION

Flight Status: Arrived
Operator:
Delta Air Lines
More flights by this operator :: More flights under this callsign
Pilot: John C. (18682)
Aircraft: AIRBUS A320
(A320)
More flights by this aircraft type
Origin: KSLC Salt Lake City Intl
United States
Destination: KBIL Billings Logan Intl
United States
More flights between these airports :: More routes between these airports
Route: NSIGN5 HOLTR JAC JEKUG YLSTN2
File this flight plan on PilotEdge
Remarks:
Altitude:
(Current/Filed)
33,000ft
Speed:
(Current/Filed)
452kts
Departed: 07-May-18 03:29 PM
Arrived: 07-May-18 04:26 PM
Distance/Time
Traveled:
336nm/0:57
Distance/Time
To Go:
Arrived

Flight Plot

Page will automatically refresh every two minutes.

Flight plan parsing failed; only flown route is shown


Map Options




Map Legend


Flown Route
Filed Route
Departure Airport
Arrival Airport
Navaid (VOR, NDB)
Fix

Horizontal Profiles

Position Reports

Time Latitude Longitude Heading Altitude Ground
Speed
07-May-18 15:03 40.788508 -111.980775 283 4236ft 0kts
07-May-18 15:04 40.788508 -111.980775 283 4236ft 0kts
07-May-18 15:05 40.788508 -111.980775 283 4236ft 0kts
07-May-18 15:06 40.788508 -111.980775 283 4236ft 0kts
07-May-18 15:07 40.788508 -111.980775 283 4236ft 0kts
07-May-18 15:08 40.788508 -111.980775 283 4236ft 0kts
07-May-18 15:09 40.788508 -111.980775 283 4236ft 0kts
07-May-18 15:10 40.788508 -111.980775 283 4236ft 0kts
07-May-18 15:11 40.788508 -111.980775 283 4236ft 0kts
07-May-18 15:12 40.788508 -111.980775 283 4236ft 0kts
07-May-18 15:13 40.788508 -111.980775 283 4236ft 0kts
07-May-18 15:14 40.788508 -111.980775 283 4236ft 0kts
07-May-18 15:15 40.788508 -111.980775 283 4236ft 0kts
07-May-18 15:16 40.788508 -111.980775 283 4236ft 0kts
07-May-18 15:17 40.788506 -111.980759 283 4236ft 1kts
07-May-18 15:18 40.788289 -111.980096 335 4236ft 2kts
07-May-18 15:19 40.788018 -111.980099 19 4236ft 0kts
07-May-18 15:20 40.788019 -111.980099 19 4236ft 0kts
07-May-18 15:21 40.788097 -111.980063 19 4236ft 0kts
07-May-18 15:22 40.788103 -111.980060 18 4236ft 0kts
07-May-18 15:23 40.788108 -111.980058 18 4236ft 0kts
07-May-18 15:24 40.789703 -111.978372 85 4236ft 10kts
07-May-18 15:25 40.786344 -111.976673 175 4236ft 22kts
07-May-18 15:26 40.780276 -111.975957 174 4236ft 22kts
07-May-18 15:27 40.774867 -111.974817 166 4236ft 7kts
07-May-18 15:27 40.774965 -111.973409 34 4236ft 13kts
07-May-18 15:28 40.801313 -111.975811 354 5026ft 175kts
07-May-18 15:29 40.851862 -111.982767 351 7433ft 228kts
07-May-18 15:30 40.921832 -111.992396 352 10168ft 275kts
07-May-18 15:31 41.000816 -112.003378 351 13311ft 303kts
07-May-18 15:32 41.087494 -112.002704 28 16202ft 334kts
07-May-18 15:33 41.152629 -111.916694 43 18865ft 353kts
07-May-18 15:34 41.224612 -111.825852 24 21269ft 363kts
07-May-18 15:36 41.336543 -111.745647 24 22372ft 419kts
07-May-18 15:36 41.426293 -111.695272 11 23770ft 425kts
07-May-18 15:37 41.540626 -111.649855 11 25439ft 435kts
07-May-18 15:38 41.656216 -111.603684 11 26935ft 445kts
07-May-18 15:39 41.776785 -111.555377 10 28327ft 453kts
07-May-18 15:40 41.899834 -111.524257 3 29574ft 456kts
07-May-18 15:41 42.025931 -111.495720 3 30709ft 464kts
07-May-18 15:42 42.149978 -111.467544 3 32189ft 459kts
07-May-18 15:43 42.275024 -111.439029 3 33265ft 456kts
07-May-18 15:44 42.396380 -111.383191 14 33295ft 465kts
07-May-18 15:45 42.515821 -111.320889 15 33301ft 466kts
07-May-18 15:47 42.636467 -111.257680 15 33306ft 466kts
07-May-18 15:48 42.757036 -111.194241 15 33307ft 466kts
07-May-18 15:49 42.877134 -111.130784 15 33304ft 466kts
07-May-18 15:50 42.997742 -111.066785 14 33316ft 465kts
07-May-18 15:51 43.116792 -111.003354 14 33315ft 462kts
07-May-18 15:52 43.235700 -110.939730 14 33281ft 461kts
07-May-18 15:53 43.353880 -110.876229 14 33276ft 463kts
07-May-18 15:54 43.473436 -110.811717 14 33295ft 464kts
07-May-18 15:55 43.591915 -110.747097 17 33309ft 467kts
07-May-18 15:56 43.695343 -110.628118 39 33326ft 487kts
07-May-18 15:57 43.790186 -110.495427 39 33304ft 486kts
07-May-18 15:58 43.884583 -110.362736 39 33287ft 485kts
07-May-18 15:59 43.978430 -110.230158 40 33263ft 485kts
07-May-18 16:00 44.072816 -110.096173 40 33258ft 485kts
07-May-18 16:01 44.165967 -109.963297 40 33271ft 486kts
07-May-18 16:02 44.259072 -109.829838 40 33308ft 478kts
07-May-18 16:03 44.362497 -109.722171 20 33194ft 459kts
07-May-18 16:04 44.475709 -109.642596 20 32861ft 457kts
07-May-18 16:05 44.588399 -109.562667 20 31716ft 450kts
07-May-18 16:06 44.698203 -109.484493 20 29724ft 436kts
07-May-18 16:07 44.804187 -109.408719 20 27729ft 424kts
07-May-18 16:08 44.906793 -109.335063 21 25759ft 411kts
07-May-18 16:09 45.006590 -109.263140 22 23789ft 398kts
07-May-18 16:10 45.102718 -109.193594 22 21856ft 384kts
07-May-18 16:11 45.195682 -109.125962 22 19955ft 371kts
07-May-18 16:12 45.285736 -109.060175 23 18065ft 359kts
07-May-18 16:13 45.372804 -108.996344 23 16234ft 348kts
07-May-18 16:14 45.456054 -108.935089 23 15012ft 321kts
07-May-18 16:15 45.505991 -108.839481 66 13847ft 312kts
07-May-18 16:16 45.537543 -108.725713 66 12420ft 305kts
07-May-18 16:17 45.568161 -108.615008 66 11038ft 298kts
07-May-18 16:18 45.597687 -108.507694 66 10130ft 276kts
07-May-18 16:19 45.625138 -108.407521 66 9146ft 271kts
07-May-18 16:20 45.661972 -108.324784 48 8623ft 238kts
07-May-18 16:21 45.715425 -108.324232 339 7350ft 200kts
07-May-18 16:22 45.759336 -108.362549 291 5919ft 189kts
07-May-18 16:23 45.777786 -108.429075 289 4964ft 166kts
07-May-18 16:24 45.792787 -108.483111 289 4182ft 137kts
07-May-18 16:25 45.805693 -108.529667 292 3660ft 58kts
07-May-18 16:26 45.808019 -108.540283 206 3660ft 0kts
07-May-18 16:27 45.806690 -108.540057 114 3660ft 12kts
07-May-18 16:28 45.804467 -108.537191 170 3660ft 5kts
07-May-18 16:29 45.804214 -108.537139 174 3660ft 0kts
07-May-18 16:30 45.804214 -108.537139 174 3660ft 0kts
07-May-18 16:31 45.804214 -108.537139 174 3660ft 0kts

Navigation Log

Ident Type
Flight plan parsing failed, navigation log unavailable